EGGP/LPL METAR and TAF weather

Enter ICAO airport designator
Station Type Date Time Source
EGGP METAR 2019/08/19 01:20 UTC NOAA

EGGP 190120Z 23009KT 9999 FEW039 15/13 Q1006


Station Type Date Time Source
EGGP Decoded METAR 2019/08/19 01:20 UTC NOAA

Station name not available
Aug 18, 2019 - 09:20 PM EDT / 2019.08.19 0120 UTC
Wind: from the SW (230 degrees) at 10 MPH (9 KT):0
Visibility: greater than 7 mile(s):0
Sky conditions: mostly clear
Temperature: 59 F (15 C)
Dew Point: 55 F (13 C)
Relative Humidity: 87%
Pressure (altimeter): 29.71 in. Hg (1006 hPa)
ob: EGGP 190120Z 23009KT 9999 FEW039 15/13 Q1006
cycle: 1

Station Type Date Time Source
EGGP TAF 2019/08/18 18:09 UTC NOAA

TAF EGGP 181657Z 1818/1918 23020KT 9999 SCT030
TEMPO 1818/1820 26023G33KT PROB30
TEMPO 1818/1903 4000 +SHRA
BECMG 1900/1903 20008KT PROB30
TEMPO 1908/1918 25017G27KT 7000 SHRA

Example: see airport list